Flight Track Log - Related Links

Times and Time Zones

All times are in EDT time to prevent confusion due to time zone crossing. See the SWA407 flight status page for this flight to view local times or setup timezone preferences in your user account.

Time Position Orientation Groundspeed Altitude Reporting Facility
EDT Latitude Longitude Course Direction KTS MPH feet Rate Location/Type
Thu 01:17:57 PM 36.1333 -86.6500 360° North 147 169 1,200  Level Nashville TRACON
Thu 01:18:15 PM 36.1500 -86.6500 360° North 162 186 1,800 2,077 Climbing Nashville TRACON
Thu 01:19:15 PM 36.1667 -86.5833 73° East 215 247 3,900 2,300 Climbing Nashville TRACON
Thu 01:20:15 PM 36.1000 -86.5667 169° South 269 310 6,400 3,034 Climbing Nashville TRACON
Thu 01:20:44 PM 36.0544 -86.5547 168° South 271 312 8,400 3,236 Climbing Memphis Center
Thu 01:21:44 PM 35.9828 -86.5325 166° South 295 339 11,200 2,450 Climbing Memphis Center
Thu 01:22:44 PM 35.9008 -86.5131 169° South 316 364 13,300 2,667 Climbing Memphis Center
Thu 01:24:44 PM 35.7011 -86.4561 167° South 365 420 19,200 2,584 Climbing Memphis Center
Thu 01:27:11 PM 35.4286 -86.4014 171° South 401 461 24,800 2,174 Climbing Atlanta Center
Thu 01:28:11 PM 35.3167 -86.3550 161° South 417 480 26,700 1,785 Climbing Atlanta Center
Thu 01:29:12 PM 35.2053 -86.2933 156° South 422 486 28,400 1,700 Climbing Atlanta Center
Thu 01:30:11 PM 35.0958 -86.2319 155° Southeast 430 495 30,100 1,916 Climbing Atlanta Center
Thu 01:31:11 PM 34.9842 -86.1733 157° South 438 504 32,200 2,050 Climbing Atlanta Center
Thu 01:32:11 PM 34.8744 -86.1275 161° South 425 489 34,200 1,900 Climbing Atlanta Center
Thu 01:33:11 PM 34.7686 -86.0819 161° South 420 483 36,000 1,650 Climbing Atlanta Center
Thu 01:34:11 PM 34.6650 -86.0389 161° South 402 463 37,500 1,150 Climbing Atlanta Center
Thu 01:35:11 PM 34.5614 -85.9936 160° South 397 457 38,300 600 Climbing Atlanta Center
Thu 01:36:11 PM 34.4578 -85.9508 161° South 397 457 38,700 350 Climbing Atlanta Center
Thu 01:37:11 PM 34.3542 -85.9058 160° South 402 463 39,000 150 Climbing Atlanta Center
Thu 01:38:11 PM 34.2442 -85.8606 161° South 402 463 39,000  Level Atlanta Center
Thu 01:39:11 PM 34.1406 -85.8158 160° South 402 463 39,000  Level Atlanta Center
Thu 01:40:11 PM 34.0367 -85.7786 163° South 402 463 39,000  Level Atlanta Center
Thu 01:41:11 PM 33.9286 -85.7336 161° South 397 457 39,000  Level Atlanta Center
Thu 01:42:11 PM 33.8269 -85.6917 161° South 403 464 39,000  Level Atlanta Center
Thu 01:43:11 PM 33.7233 -85.6472 160° South 398 458 39,000  Level Atlanta Center
Thu 01:44:11 PM 33.6153 -85.6028 161° South 398 458 39,000  Level Atlanta Center
Thu 01:45:11 PM 33.5136 -85.5611 161° South 399 459 39,000  Level Atlanta Center
Thu 01:46:11 PM 33.4075 -85.5194 162° South 399 459 39,000  Level Atlanta Center
Thu 01:47:11 PM 33.2997 -85.4728 160° South 399 459 39,000  Level Atlanta Center
Thu 01:48:11 PM 33.1978 -85.4314 161° South 405 466 39,000  Level Atlanta Center
Thu 01:49:11 PM 33.1042 -85.3928 161° South 394 453 39,000 -500 Level Atlanta Center
Thu 01:50:11 PM 32.9942 -85.3417 159° South 394 453 38,000 -950 Descending Atlanta Center
Thu 01:51:11 PM 32.8944 -85.3006 161° South 380 437 37,100 -500 Descending Atlanta Center
Thu 01:52:11 PM 32.7906 -85.2594 162° South 386 444 37,000 -50 Descending Atlanta Center
Thu 01:53:11 PM 32.6886 -85.2161 160° South 391 450 37,000  Level Atlanta Center
Thu 01:54:11 PM 32.5783 -85.1728 162° South 401 461 37,000  Level Atlanta Center
Thu 01:55:11 PM 32.4764 -85.1294 160° South 401 461 37,000  Level Atlanta Center
Thu 01:56:11 PM 32.3747 -85.0889 161° South 393 452 37,000  Level Atlanta Center
Thu 01:57:11 PM 32.2706 -85.0486 162° South 399 459 37,000  Level Atlanta Center
Thu 01:58:11 PM 32.1811 -85.0181 164° South 399 459 37,000  Level Atlanta Center
Thu 01:59:04 PM 32.0867 -84.9769 160° South 393 452 37,000  Level Jacksonville Center
Thu 02:00:04 PM 31.9872 -84.9353 160° South 398 458 37,000  Level Jacksonville Center
Thu 02:01:04 PM 31.8836 -84.8939 161° South 398 458 37,000  Level Jacksonville Center
Thu 02:02:04 PM 31.7797 -84.8550 162° South 392 451 37,000  Level Jacksonville Center
Thu 02:03:04 PM 31.6781 -84.8139 161° South 392 451 37,000  Level Jacksonville Center
Thu 02:04:04 PM 31.5742 -84.7728 161° South 392 451 37,000  Level Jacksonville Center
Thu 02:05:04 PM 31.4581 -84.7264 161° South 404 465 37,000  Level Jacksonville Center
Thu 02:06:04 PM 31.3522 -84.6856 162° South 404 465 37,000  Level Jacksonville Center
Thu 02:07:04 PM 31.2483 -84.6472 162° South 404 465 37,000  Level Jacksonville Center
Thu 02:08:04 PM 31.1422 -84.6064 162° South 404 465 37,000  Level Jacksonville Center
Thu 02:09:04 PM 31.0406 -84.5631 160° South 404 465 37,000  Level Jacksonville Center
Thu 02:10:04 PM 30.9389 -84.5250 162° South 404 465 37,000  Level Jacksonville Center
Thu 02:11:04 PM 30.8350 -84.4844 161° South 398 458 37,000  Level Jacksonville Center
Thu 02:12:04 PM 30.7311 -84.4442 162° South 398 458 37,000  Level Jacksonville Center
Thu 02:13:04 PM 30.6314 -84.4039 161° South 398 458 37,000  Level Jacksonville Center
Thu 02:14:04 PM 30.5397 -84.3664 161° South 387 445 37,000  Level Jacksonville Center
Thu 02:15:04 PM 30.4444 -84.3022 150° Southeast 387 445 37,000  Level Jacksonville Center
Thu 02:16:04 PM 30.3514 -84.2406 150° Southeast 387 445 37,000  Level Jacksonville Center
Thu 02:17:04 PM 30.2433 -84.1717 151° Southeast 392 451 37,000  Level Jacksonville Center
Thu 02:18:04 PM 30.1500 -84.1106 150° Southeast 392 451 37,000 -50 Level Jacksonville Center
Thu 02:19:04 PM 30.0506 -84.0467 151° Southeast 392 451 36,900 -550 Descending Jacksonville Center
Thu 02:20:04 PM 29.9550 -83.9833 150° Southeast 392 451 35,900 -950 Descending Jacksonville Center
Thu 02:21:04 PM 29.8594 -83.9200 150° Southeast 397 457 35,000 -450 Descending Jacksonville Center
Thu 02:22:04 PM 29.7597 -83.8567 151° Southeast 397 457 35,000  Level Jacksonville Center
Thu 02:23:04 PM 29.6600 -83.7936 151° Southeast 402 463 35,000  Level Jacksonville Center
Thu 02:24:04 PM 29.5603 -83.7283 150° Southeast 408 470 35,000 -1,150 Level Jacksonville Center
Thu 02:25:04 PM 29.4603 -83.6653 151° Southeast 408 470 32,700 -2,450 Descending Jacksonville Center
Thu 02:26:04 PM 29.3586 -83.6003 151° Southeast 413 475 30,100 -2,400 Descending Jacksonville Center
Thu 02:27:04 PM 29.2608 -83.5353 150° Southeast 413 475 27,900 -1,900 Descending Jacksonville Center
Thu 02:28:04 PM 29.1586 -83.4728 152° Southeast 413 475 26,300 -1,250 Descending Jacksonville Center
Thu 02:29:04 PM 29.0631 -83.4106 150° Southeast 418 481 25,400 -1,000 Descending Jacksonville Center
Thu 02:30:04 PM 28.9650 -83.3483 151° Southeast 418 481 24,300 -1,650 Descending Jacksonville Center
Thu 02:31:04 PM 28.8653 -83.2814 150° Southeast 413 475 22,100 -2,200 Descending Jacksonville Center
Thu 02:32:04 PM 28.7714 -83.2289 154° Southeast 403 464 19,900 -2,150 Descending Jacksonville Center
Thu 02:33:04 PM 28.6756 -83.1669 150° Southeast 398 458 17,800 -2,286 Descending Jacksonville Center
Thu 02:33:49 PM 28.6000 -83.1167 150° Southeast 385 443 15,900 -2,286 Descending Tampa TRACON
Thu 02:34:49 PM 28.5000 -83.0500 150° Southeast 381 438 13,800 -1,900 Descending Tampa TRACON
Thu 02:35:49 PM 28.4167 -83.0000 152° Southeast 363 418 12,100 -1,350 Descending Tampa TRACON
Thu 02:36:49 PM 28.3333 -82.9500 152° Southeast 326 375 11,100 -1,140 Descending Tampa TRACON
Thu 02:37:50 PM 28.2667 -82.8833 139° Southeast 333 383 9,800 -1,388 Descending Tampa TRACON
Thu 02:38:50 PM 28.2833 -82.7667 81° East 328 377 8,300 -1,650 Descending Tampa TRACON
Thu 02:39:50 PM 28.2500 -82.6833 114° Southeast 314 361 6,500 -1,700 Descending Tampa TRACON
Thu 02:40:50 PM 28.2333 -82.5833 101° East 304 350 4,900 -1,550 Descending Tampa TRACON
Thu 02:41:50 PM 28.1833 -82.5333 139° Southeast 260 299 3,400 -1,200 Descending Tampa TRACON
Thu 02:42:50 PM 28.1167 -82.5167 168° South 210 242 2,500 -800 Descending Tampa TRACON
Thu 02:43:50 PM 28.0833 -82.5333 204° Southwest 162 186 1,800 -750 Descending Tampa TRACON
Thu 02:44:50 PM 28.0333 -82.5333 180° South 140 161 1,000 -800 Descending Tampa TRACON

Login

Don't have an account? Register now (free) for customized features, flight alerts, and more!